createdAt,value
2018-04-15T00:00:02.343Z,0.00
2018-04-15T00:01:02.302Z,0.00
2018-04-15T00:02:02.305Z,0.00
2018-04-15T00:03:02.235Z,0.00
2018-04-15T00:04:02.192Z,0.00
2018-04-15T00:05:02.158Z,0.00
2018-04-15T00:06:02.125Z,0.00
2018-04-15T00:07:02.078Z,0.00
2018-04-15T00:08:02.070Z,0.00
2018-04-15T00:09:02.008Z,0.00
2018-04-15T00:10:01.960Z,0.00
2018-04-15T00:11:01.942Z,0.00
2018-04-15T00:12:01.931Z,0.00
2018-04-15T00:13:01.847Z,0.00
2018-04-15T00:14:01.816Z,0.00
2018-04-15T00:15:01.772Z,0.00
2018-04-15T00:16:01.744Z,0.00
2018-04-15T00:17:01.707Z,0.00
2018-04-15T00:18:01.692Z,0.00
2018-04-15T00:19:01.633Z,0.00
2018-04-15T00:20:01.592Z,0.00
2018-04-15T00:21:01.548Z,0.00
2018-04-15T00:22:01.516Z,0.00
2018-04-15T00:23:01.479Z,0.00
2018-04-15T00:24:01.466Z,0.00
2018-04-15T00:25:01.410Z,0.00
2018-04-15T00:26:01.380Z,0.00
2018-04-15T00:27:01.318Z,0.00
2018-04-15T00:28:01.283Z,0.00
2018-04-15T00:29:01.287Z,0.00
2018-04-15T00:30:01.205Z,0.00
2018-04-15T00:31:01.175Z,0.00
2018-04-15T00:32:01.136Z,0.00
2018-04-15T00:33:01.100Z,0.00
2018-04-15T00:34:01.058Z,0.00
2018-04-15T00:35:01.044Z,0.00
2018-04-15T00:36:00.986Z,0.00
2018-04-15T00:37:00.951Z,0.00
2018-04-15T00:38:00.912Z,0.00
2018-04-15T00:39:00.893Z,0.00
2018-04-15T00:40:00.831Z,0.00
2018-04-15T00:41:00.792Z,0.00
2018-04-15T00:42:00.749Z,0.00
2018-04-15T00:43:00.723Z,0.00
2018-04-15T00:44:00.677Z,0.00
2018-04-15T00:45:01.094Z,0.00
2018-04-15T00:46:00.600Z,0.00
2018-04-15T00:47:00.554Z,0.00
2018-04-15T00:48:00.532Z,0.00
2018-04-15T00:49:00.481Z,0.00
2018-04-15T00:50:00.440Z,0.00
2018-04-15T00:51:00.443Z,0.00
2018-04-15T00:52:00.371Z,0.00
2018-04-15T00:53:00.340Z,0.00
2018-04-15T00:54:00.294Z,0.00
2018-04-15T00:55:00.268Z,0.00
2018-04-15T00:56:00.237Z,0.00
2018-04-15T00:57:00.174Z,0.00
2018-04-15T00:58:00.147Z,0.00
2018-04-15T00:59:00.104Z,0.00
2018-04-15T01:00:00.074Z,0.00
2018-04-15T01:01:00.063Z,0.00
2018-04-15T01:01:59.992Z,0.00
2018-04-15T01:02:59.975Z,0.00
2018-04-15T01:03:59.910Z,0.00
2018-04-15T01:04:59.875Z,0.00
2018-04-15T01:05:59.838Z,0.00
2018-04-15T01:06:59.825Z,0.00
2018-04-15T01:07:59.764Z,0.00
2018-04-15T01:08:59.720Z,0.00
2018-04-15T01:09:59.691Z,0.00
2018-04-15T01:10:59.646Z,0.00
2018-04-15T01:11:59.638Z,0.00
2018-04-15T01:12:59.573Z,0.00
2018-04-15T01:13:59.534Z,0.00
2018-04-15T01:14:59.500Z,0.00
2018-04-15T01:15:59.452Z,0.00
2018-04-15T01:16:59.461Z,0.00
2018-04-15T01:17:59.379Z,0.00
2018-04-15T01:18:59.344Z,0.00
2018-04-15T01:19:59.307Z,0.00
2018-04-15T01:20:59.274Z,0.00
2018-04-15T01:21:59.222Z,0.00
2018-04-15T01:22:59.222Z,0.00
2018-04-15T01:23:59.141Z,0.00
2018-04-15T01:24:59.147Z,0.00
2018-04-15T01:25:59.070Z,0.00
2018-04-15T01:26:59.038Z,0.00
2018-04-15T01:27:59.023Z,0.00
2018-04-15T01:28:58.969Z,0.00
2018-04-15T01:29:58.928Z,0.00
2018-04-15T01:30:58.882Z,0.00
2018-04-15T01:31:58.840Z,0.00
2018-04-15T01:32:58.803Z,0.00
2018-04-15T01:33:58.803Z,0.00
2018-04-15T01:34:58.724Z,0.00
2018-04-15T01:35:58.692Z,0.00
2018-04-15T01:36:58.644Z,0.00
2018-04-15T01:37:58.615Z,0.00
2018-04-15T01:38:58.605Z,0.00
2018-04-15T01:39:58.541Z,0.00
2018-04-15T01:40:58.489Z,0.00
2018-04-15T01:41:58.459Z,0.00
2018-04-15T01:42:58.411Z,0.00
2018-04-15T01:43:58.393Z,0.00
2018-04-15T01:44:58.381Z,0.00
2018-04-15T01:45:58.307Z,0.00
2018-04-15T01:46:58.275Z,0.00
2018-04-15T01:47:58.233Z,0.00
2018-04-15T01:48:58.194Z,0.00
2018-04-15T01:49:58.176Z,0.00
2018-04-15T01:50:58.107Z,0.00
2018-04-15T01:51:58.074Z,0.00
2018-04-15T01:52:58.045Z,0.00
2018-04-15T01:53:57.993Z,0.00
2018-04-15T01:54:57.964Z,0.00
2018-04-15T01:55:57.973Z,0.00
2018-04-15T01:56:57.880Z,0.00
2018-04-15T01:57:57.836Z,0.00
2018-04-15T01:58:57.814Z,0.00
2018-04-15T01:59:57.760Z,0.00
2018-04-15T02:00:57.731Z,0.00
2018-04-15T02:01:57.736Z,0.00
2018-04-15T02:02:57.645Z,0.00
2018-04-15T02:03:57.617Z,0.00
2018-04-15T02:04:57.575Z,0.00
2018-04-15T02:05:57.546Z,0.00
2018-04-15T02:06:57.523Z,0.00
2018-04-15T02:07:57.472Z,0.00
2018-04-15T02:08:57.418Z,0.00
2018-04-15T02:09:57.379Z,0.00
2018-04-15T02:10:57.332Z,0.00
2018-04-15T02:11:57.317Z,0.00
2018-04-15T02:12:57.286Z,0.00
2018-04-15T02:13:57.222Z,0.00
2018-04-15T02:14:57.178Z,0.00
2018-04-15T02:15:57.146Z,0.00
2018-04-15T02:16:57.111Z,0.00
2018-04-15T02:17:57.074Z,0.00
2018-04-15T02:18:57.078Z,0.00
2018-04-15T02:19:56.994Z,0.00
2018-04-15T02:20:56.947Z,0.00
2018-04-15T02:21:56.919Z,0.00
2018-04-15T02:22:56.878Z,0.00
2018-04-15T02:23:56.873Z,0.00
2018-04-15T02:24:56.818Z,0.00
2018-04-15T02:25:56.768Z,0.00
2018-04-15T02:26:56.722Z,0.00
2018-04-15T02:27:56.691Z,0.00
2018-04-15T02:28:56.663Z,0.00
2018-04-15T02:29:56.635Z,0.00
2018-04-15T02:30:56.575Z,0.00
2018-04-15T02:31:56.527Z,0.00
2018-04-15T02:32:56.488Z,0.00
2018-04-15T02:33:56.456Z,0.00
2018-04-15T02:34:56.413Z,0.00
2018-04-15T02:35:56.397Z,0.00
2018-04-15T02:36:56.341Z,0.00
2018-04-15T02:37:56.296Z,0.00
2018-04-15T02:38:56.255Z,0.00
2018-04-15T02:39:56.245Z,0.00
2018-04-15T02:40:56.175Z,0.00
2018-04-15T02:41:56.145Z,0.00
2018-04-15T02:42:56.093Z,0.00
2018-04-15T02:43:56.067Z,0.00
2018-04-15T02:44:56.022Z,0.00
2018-04-15T02:45:56.058Z,0.00
2018-04-15T02:46:55.937Z,0.00
2018-04-15T02:47:55.915Z,0.00
2018-04-15T02:48:55.872Z,0.00
2018-04-15T02:49:55.831Z,0.00
2018-04-15T02:50:55.826Z,0.00
2018-04-15T02:51:55.755Z,0.00
2018-04-15T02:52:55.707Z,0.00
2018-04-15T02:53:55.679Z,0.00
2018-04-15T02:54:55.639Z,0.00
2018-04-15T02:55:55.605Z,0.00
2018-04-15T02:56:55.601Z,0.00
2018-04-15T02:57:55.529Z,0.00
2018-04-15T02:58:55.482Z,0.00
2018-04-15T02:59:55.470Z,0.00
2018-04-15T03:00:55.410Z,0.00
2018-04-15T03:01:55.406Z,0.00
2018-04-15T03:02:55.330Z,0.00
2018-04-15T03:03:55.303Z,0.00
2018-04-15T03:04:55.245Z,0.00
2018-04-15T03:05:55.219Z,0.00
2018-04-15T03:06:55.170Z,0.00
2018-04-15T03:07:55.175Z,0.00
2018-04-15T03:08:55.119Z,0.00
2018-04-15T03:09:55.048Z,0.00
2018-04-15T03:10:55.032Z,0.00
2018-04-15T03:11:55.001Z,0.00
2018-04-15T03:12:54.978Z,0.00
2018-04-15T03:13:54.953Z,0.00
2018-04-15T03:14:54.860Z,0.00
2018-04-15T03:15:54.835Z,0.00
2018-04-15T03:16:54.807Z,0.00
2018-04-15T03:17:54.759Z,0.00
2018-04-15T03:18:54.759Z,0.00
2018-04-15T03:19:54.661Z,0.00
2018-04-15T03:20:54.641Z,0.00
2018-04-15T03:21:54.615Z,0.00
2018-04-15T03:22:54.588Z,0.00
2018-04-15T03:23:54.540Z,0.00
2018-04-15T03:24:54.526Z,0.00
2018-04-15T03:25:54.453Z,0.00
2018-04-15T03:26:54.408Z,0.00
2018-04-15T03:27:54.370Z,0.00
2018-04-15T03:28:54.328Z,0.00
2018-04-15T03:29:54.369Z,0.00
2018-04-15T03:30:54.287Z,0.00
2018-04-15T03:31:54.208Z,0.00
2018-04-15T03:32:54.168Z,0.00
2018-04-15T03:33:54.161Z,0.00
2018-04-15T03:34:54.109Z,0.00
2018-04-15T03:35:54.109Z,0.00
2018-04-15T03:36:54.052Z,0.00
2018-04-15T03:37:54.001Z,0.00
2018-04-15T03:38:53.936Z,0.00
2018-04-15T03:39:53.904Z,0.00
2018-04-15T03:40:53.881Z,0.00
2018-04-15T03:41:53.852Z,0.00
2018-04-15T03:42:53.786Z,0.00
2018-04-15T03:43:53.774Z,0.00
2018-04-15T03:44:53.686Z,0.00
2018-04-15T03:45:53.674Z,0.00
2018-04-15T03:46:53.662Z,0.00
2018-04-15T03:47:53.615Z,0.00
2018-04-15T03:48:53.550Z,0.00
2018-04-15T03:49:53.497Z,0.00
2018-04-15T03:50:53.451Z,0.00
2018-04-15T03:51:53.447Z,0.00
2018-04-15T03:52:53.417Z,0.00
2018-04-15T03:53:53.416Z,0.00
2018-04-15T03:54:53.323Z,0.00
2018-04-15T03:55:53.282Z,0.00
2018-04-15T03:56:53.225Z,0.00
2018-04-15T03:57:53.228Z,0.00
2018-04-15T03:58:53.414Z,0.00
2018-04-15T03:59:53.146Z,0.00
2018-04-15T04:00:53.102Z,0.00
2018-04-15T04:01:53.023Z,0.00
2018-04-15T04:02:52.975Z,0.00
2018-04-15T04:03:53.013Z,0.00
2018-04-15T04:04:52.911Z,0.00
2018-04-15T04:05:52.879Z,0.00
2018-04-15T04:06:52.828Z,0.00
2018-04-15T04:07:52.787Z,0.00
2018-04-15T04:08:52.753Z,0.00
2018-04-15T04:09:52.796Z,0.00
2018-04-15T04:10:52.673Z,0.00
2018-04-15T04:11:52.634Z,0.00
2018-04-15T04:12:52.626Z,0.00
2018-04-15T04:13:52.566Z,0.00
2018-04-15T04:14:52.530Z,0.00
2018-04-15T04:15:52.517Z,0.00
2018-04-15T04:16:52.458Z,0.00
2018-04-15T04:17:52.401Z,0.00
2018-04-15T04:18:52.362Z,0.00
2018-04-15T04:19:52.340Z,0.00
2018-04-15T04:20:52.337Z,0.00
2018-04-15T04:21:52.245Z,0.00
2018-04-15T04:22:52.219Z,0.00
2018-04-15T04:23:52.173Z,0.00
2018-04-15T04:24:52.169Z,0.00
2018-04-15T04:25:52.154Z,0.00
2018-04-15T04:26:52.041Z,0.00
2018-04-15T04:27:52.015Z,0.00
2018-04-15T04:28:51.975Z,0.00
2018-04-15T04:29:51.950Z,0.00
2018-04-15T04:30:51.910Z,0.00
2018-04-15T04:31:51.910Z,0.00
2018-04-15T04:32:51.822Z,0.00
2018-04-15T04:33:51.775Z,0.00
2018-04-15T04:34:51.747Z,0.00
2018-04-15T04:35:51.718Z,0.00
2018-04-15T04:36:51.706Z,0.00
2018-04-15T04:37:51.650Z,0.00
2018-04-15T04:38:51.573Z,0.00
2018-04-15T04:39:51.542Z,0.00
2018-04-15T04:40:51.518Z,0.00
2018-04-15T04:41:51.525Z,0.00
2018-04-15T04:42:52.017Z,0.00
2018-04-15T04:43:51.412Z,0.00
2018-04-15T04:44:51.355Z,0.00
2018-04-15T04:45:51.387Z,0.00
2018-04-15T04:46:51.305Z,0.00
2018-04-15T04:47:51.315Z,0.00
2018-04-15T04:48:51.252Z,0.00
2018-04-15T04:49:51.233Z,0.00
2018-04-15T04:50:51.143Z,5.63
2018-04-15T04:51:51.086Z,5.63
2018-04-15T04:52:51.052Z,5.63
2018-04-15T04:53:51.048Z,5.63
2018-04-15T04:54:50.958Z,5.63
2018-04-15T04:55:50.925Z,5.63
2018-04-15T04:56:50.902Z,5.63
2018-04-15T04:57:50.881Z,11.25
2018-04-15T04:58:50.835Z,11.25
2018-04-15T04:59:50.756Z,11.25
2018-04-15T05:00:50.724Z,16.88
2018-04-15T05:01:50.693Z,16.88
2018-04-15T05:02:50.632Z,16.88
2018-04-15T05:03:50.651Z,16.88
2018-04-15T05:04:50.563Z,16.88
2018-04-15T05:05:50.523Z,16.88
2018-04-15T05:06:50.508Z,16.88
2018-04-15T05:07:50.471Z,22.50
2018-04-15T05:08:50.425Z,22.50
2018-04-15T05:09:50.423Z,22.50
2018-04-15T05:10:50.365Z,22.50
2018-04-15T05:11:50.295Z,22.50
2018-04-15T05:12:50.255Z,22.50
2018-04-15T05:13:50.225Z,22.50
2018-04-15T05:14:50.210Z,22.50
2018-04-15T05:15:50.178Z,28.13
2018-04-15T05:16:50.109Z,28.13
2018-04-15T05:17:50.070Z,28.13
2018-04-15T05:18:50.086Z,28.13
2018-04-15T05:19:50.026Z,28.13
2018-04-15T05:20:49.980Z,33.75
2018-04-15T05:21:50.014Z,33.75
2018-04-15T05:22:49.879Z,33.75
2018-04-15T05:23:49.837Z,33.75
2018-04-15T05:24:49.802Z,33.75
2018-04-15T05:25:49.839Z,39.38
2018-04-15T05:26:49.727Z,39.38
2018-04-15T05:27:49.673Z,39.38
2018-04-15T05:28:49.648Z,45.00
2018-04-15T05:29:49.613Z,45.00
2018-04-15T05:30:49.556Z,45.00
2018-04-15T05:31:49.547Z,50.63
2018-04-15T05:32:49.500Z,56.25
2018-04-15T05:33:49.465Z,56.25
2018-04-15T05:34:49.425Z,61.88
2018-04-15T05:35:49.368Z,67.50
2018-04-15T05:36:49.322Z,73.13
2018-04-15T05:37:49.321Z,84.38
2018-04-15T05:38:49.266Z,90.00
2018-04-15T05:39:50.027Z,90.00
2018-04-15T05:40:49.214Z,95.63
2018-04-15T05:41:49.129Z,101.25
2018-04-15T05:42:49.134Z,101.25
2018-04-15T05:43:49.058Z,106.88
2018-04-15T05:44:49.020Z,106.88
2018-04-15T05:45:48.954Z,112.50
2018-04-15T05:46:48.924Z,112.50
2018-04-15T05:47:48.901Z,112.50
2018-04-15T05:48:48.877Z,112.50
2018-04-15T05:49:48.807Z,118.13
2018-04-15T05:50:48.776Z,118.13
2018-04-15T05:51:48.756Z,123.75
2018-04-15T05:52:48.714Z,129.38
2018-04-15T05:53:48.689Z,135.00
2018-04-15T05:54:48.647Z,140.63
2018-04-15T05:55:48.575Z,146.25
2018-04-15T05:56:48.550Z,151.88
2018-04-15T05:57:48.515Z,151.88
2018-04-15T05:58:48.482Z,146.25
2018-04-15T05:59:48.450Z,146.25
2018-04-15T06:00:48.381Z,135.00
2018-04-15T06:01:48.353Z,101.25
2018-04-15T06:02:48.301Z,95.63
2018-04-15T06:03:48.297Z,95.63
2018-04-15T06:04:48.279Z,106.88
2018-04-15T06:05:48.256Z,118.13
2018-04-15T06:06:48.150Z,118.13
2018-04-15T06:07:48.182Z,118.13
2018-04-15T06:08:48.091Z,129.38
2018-04-15T06:09:48.083Z,135.00
2018-04-15T06:10:48.003Z,123.75
2018-04-15T06:11:47.967Z,168.75
2018-04-15T06:12:47.920Z,185.63
2018-04-15T06:13:48.004Z,196.88
2018-04-15T06:14:47.947Z,202.50
2018-04-15T06:15:47.820Z,208.13
2018-04-15T06:16:47.787Z,213.75
2018-04-15T06:17:47.727Z,213.75
2018-04-15T06:18:47.672Z,208.13
2018-04-15T06:19:47.636Z,196.88
2018-04-15T06:20:47.652Z,202.50
2018-04-15T06:21:47.557Z,202.50
2018-04-15T06:22:47.520Z,208.13
2018-04-15T06:23:47.486Z,213.75
2018-04-15T06:24:47.476Z,225.00
2018-04-15T06:25:47.538Z,253.13
2018-04-15T06:26:47.479Z,264.38
2018-04-15T06:27:47.386Z,264.38
2018-04-15T06:28:47.363Z,264.38
2018-04-15T06:29:47.290Z,258.75
2018-04-15T06:30:47.214Z,247.50
2018-04-15T06:31:47.239Z,230.63
2018-04-15T06:32:47.145Z,236.25
2018-04-15T06:33:47.177Z,247.50
2018-04-15T06:34:47.107Z,264.38
2018-04-15T06:35:47.033Z,281.25
2018-04-15T06:36:47.001Z,292.50
2018-04-15T06:37:46.982Z,303.75
2018-04-15T06:38:47.047Z,292.50
2018-04-15T06:39:46.868Z,270.00
2018-04-15T06:40:46.847Z,320.63
2018-04-15T06:41:46.791Z,275.63
2018-04-15T06:42:46.768Z,275.63
2018-04-15T06:43:46.761Z,275.63
2018-04-15T06:44:46.662Z,309.38
2018-04-15T06:45:46.660Z,309.38
2018-04-15T06:46:46.592Z,337.50
2018-04-15T06:47:46.547Z,410.63
2018-04-15T06:48:46.556Z,455.63
2018-04-15T06:49:46.477Z,466.88
2018-04-15T06:50:46.441Z,495.00
2018-04-15T06:51:46.391Z,523.13
2018-04-15T06:52:46.388Z,551.25
2018-04-15T06:53:46.318Z,540.00
2018-04-15T06:54:46.313Z,601.88
2018-04-15T06:55:46.262Z,590.63
2018-04-15T06:56:46.222Z,618.75
2018-04-15T06:57:46.154Z,601.88
2018-04-15T06:58:46.120Z,585.00
2018-04-15T06:59:46.086Z,601.88
2018-04-15T07:00:46.081Z,635.63
2018-04-15T07:01:46.008Z,658.13
2018-04-15T07:02:45.966Z,675.00
2018-04-15T07:03:45.957Z,680.63
2018-04-15T07:04:45.917Z,686.25
2018-04-15T07:05:45.903Z,697.50
2018-04-15T07:06:45.825Z,675.00
2018-04-15T07:07:45.835Z,663.75
2018-04-15T07:08:45.752Z,641.25
2018-04-15T07:09:45.727Z,613.13
2018-04-15T07:10:45.688Z,618.75
2018-04-15T07:11:45.674Z,624.38
2018-04-15T07:12:45.586Z,624.38
2018-04-15T07:13:45.554Z,641.25
2018-04-15T07:14:45.523Z,663.75
2018-04-15T07:15:45.471Z,658.13
2018-04-15T07:16:45.461Z,646.88
2018-04-15T07:17:45.401Z,669.38
2018-04-15T07:18:45.361Z,658.13
2018-04-15T07:19:45.325Z,646.88
2018-04-15T07:20:45.292Z,618.75
2018-04-15T07:21:45.295Z,596.25
2018-04-15T07:22:45.233Z,534.38
2018-04-15T07:23:45.166Z,472.50
2018-04-15T07:24:45.124Z,472.50
2018-04-15T07:25:45.097Z,438.75
2018-04-15T07:26:45.052Z,427.50
2018-04-15T07:27:45.064Z,444.38
2018-04-15T07:28:44.985Z,450.00
2018-04-15T07:29:44.944Z,489.38
2018-04-15T07:30:44.911Z,461.25
2018-04-15T07:31:44.869Z,461.25
2018-04-15T07:32:44.830Z,736.88
2018-04-15T07:33:44.854Z,781.88
2018-04-15T07:34:44.759Z,900.00
2018-04-15T07:35:44.723Z,855.00
2018-04-15T07:36:44.674Z,995.63
2018-04-15T07:37:44.657Z,911.25
2018-04-15T07:38:44.636Z,708.75
2018-04-15T07:39:44.568Z,663.75
2018-04-15T07:40:44.537Z,714.38
2018-04-15T07:41:44.497Z,1091.25
2018-04-15T07:42:44.456Z,1040.63
2018-04-15T07:43:44.435Z,995.63
2018-04-15T07:44:44.411Z,1479.38
2018-04-15T07:45:44.343Z,1119.38
2018-04-15T07:46:44.328Z,1035.00
2018-04-15T07:47:44.276Z,849.38
2018-04-15T07:48:44.230Z,810.00
2018-04-15T07:49:44.236Z,871.88
2018-04-15T07:50:44.158Z,877.50
2018-04-15T07:51:44.136Z,748.13
2018-04-15T07:52:44.089Z,691.88
2018-04-15T07:53:44.063Z,787.50
2018-04-15T07:54:44.021Z,866.25
2018-04-15T07:55:44.017Z,939.38
2018-04-15T07:56:43.950Z,1119.38
2018-04-15T07:57:43.916Z,1451.25
2018-04-15T07:58:43.869Z,1726.88
2018-04-15T07:59:43.844Z,1749.38
2018-04-15T08:00:43.805Z,1164.38
2018-04-15T08:01:43.801Z,714.38
2018-04-15T08:02:43.732Z,680.63
2018-04-15T08:03:43.703Z,770.63
2018-04-15T08:04:43.669Z,1153.13
2018-04-15T08:05:43.625Z,973.13
2018-04-15T08:06:43.625Z,1012.50
2018-04-15T08:07:43.570Z,691.88
2018-04-15T08:08:43.524Z,753.75
2018-04-15T08:09:43.493Z,1395.00
2018-04-15T08:10:43.449Z,590.63
2018-04-15T08:11:43.419Z,1282.50
2018-04-15T08:12:43.420Z,1276.88
2018-04-15T08:13:43.360Z,1305.00
2018-04-15T08:14:43.317Z,1321.88
2018-04-15T08:15:43.275Z,1321.88
2018-04-15T08:16:43.240Z,1485.00
2018-04-15T08:17:43.214Z,1620.00
2018-04-15T08:18:43.207Z,1698.75
2018-04-15T08:19:43.150Z,1749.38
2018-04-15T08:20:43.108Z,1636.88
2018-04-15T08:21:43.085Z,1749.38
2018-04-15T08:22:43.044Z,1715.63
2018-04-15T08:23:43.043Z,1800.00
2018-04-15T08:24:42.978Z,1845.00
2018-04-15T08:25:42.949Z,1912.50
2018-04-15T08:26:42.938Z,1805.63
2018-04-15T08:27:42.878Z,1895.63
2018-04-15T08:28:42.855Z,1895.63
2018-04-15T08:29:42.870Z,1698.75
2018-04-15T08:30:42.787Z,1743.75
2018-04-15T08:31:42.763Z,1366.88
2018-04-15T08:32:42.737Z,1552.50
2018-04-15T08:33:42.692Z,1783.13
2018-04-15T08:34:42.667Z,1288.13
2018-04-15T08:35:42.667Z,1113.75
2018-04-15T08:36:42.604Z,1575.00
2018-04-15T08:37:42.570Z,1659.38
2018-04-15T08:38:42.551Z,1721.25
2018-04-15T08:39:42.513Z,1535.63
2018-04-15T08:40:42.517Z,1406.25
2018-04-15T08:41:42.461Z,1350.00
2018-04-15T08:42:42.419Z,1366.88
2018-04-15T08:43:42.393Z,1383.75
2018-04-15T08:44:42.370Z,1445.63
2018-04-15T08:45:42.330Z,1546.88
2018-04-15T08:46:42.340Z,1642.50
2018-04-15T08:47:42.266Z,1704.38
2018-04-15T08:48:42.243Z,1783.13
2018-04-15T08:49:42.231Z,990.00
2018-04-15T08:50:42.182Z,1181.25
2018-04-15T08:51:42.150Z,1175.63
2018-04-15T08:52:42.150Z,815.63
2018-04-15T08:53:42.098Z,815.63
2018-04-15T08:54:42.053Z,765.00
2018-04-15T08:55:42.039Z,798.75
2018-04-15T08:56:42.006Z,3335.63
2018-04-15T08:57:42.001Z,883.13
2018-04-15T08:58:41.940Z,843.75
2018-04-15T08:59:41.909Z,748.13
2018-04-15T09:00:41.917Z,781.88
2018-04-15T09:01:41.857Z,1040.63
2018-04-15T09:02:41.824Z,4258.13
2018-04-15T09:03:41.817Z,1029.38
2018-04-15T09:04:41.752Z,4196.25
2018-04-15T09:05:41.720Z,3982.50
2018-04-15T09:06:41.688Z,3791.25
2018-04-15T09:07:41.648Z,3656.25
2018-04-15T09:08:41.627Z,3549.38
2018-04-15T09:09:41.635Z,3577.50
2018-04-15T09:10:41.556Z,3723.75
2018-04-15T09:11:41.522Z,3656.25
2018-04-15T09:12:41.491Z,3690.00
2018-04-15T09:13:41.460Z,3965.63
2018-04-15T09:14:41.474Z,3892.50
2018-04-15T09:15:41.411Z,3768.75
2018-04-15T09:16:41.375Z,3965.63
2018-04-15T09:17:41.345Z,4044.38
2018-04-15T09:18:41.308Z,3690.00
2018-04-15T09:19:41.268Z,3892.50
2018-04-15T09:20:41.277Z,3903.75
2018-04-15T09:21:41.226Z,3729.38
2018-04-15T09:22:41.185Z,3751.88
2018-04-15T09:23:41.168Z,3870.00
2018-04-15T09:24:41.129Z,3751.88
2018-04-15T09:25:41.103Z,3577.50
2018-04-15T09:26:41.097Z,3555.00
2018-04-15T09:27:41.034Z,3616.88
2018-04-15T09:28:41.007Z,3780.00
2018-04-15T09:29:40.974Z,3858.75
2018-04-15T09:30:40.957Z,3706.88
2018-04-15T09:31:40.915Z,3915.00
2018-04-15T09:32:40.916Z,3898.13
2018-04-15T09:33:40.877Z,3751.88
2018-04-15T09:34:40.837Z,3870.00
2018-04-15T09:35:40.801Z,3853.13
2018-04-15T09:36:40.794Z,3740.63
2018-04-15T09:37:40.759Z,3841.88
2018-04-15T09:38:40.718Z,3988.13
2018-04-15T09:39:40.682Z,4168.13
2018-04-15T09:40:40.659Z,4016.25
2018-04-15T09:41:40.634Z,1423.13
2018-04-15T09:42:40.635Z,2643.75
2018-04-15T09:43:40.576Z,4550.63
2018-04-15T09:44:40.544Z,2812.50
2018-04-15T09:45:40.505Z,4449.38
2018-04-15T09:46:40.483Z,4353.75
2018-04-15T09:47:40.475Z,4095.00
2018-04-15T09:48:40.458Z,4083.75
2018-04-15T09:49:40.404Z,3937.50
2018-04-15T09:50:40.374Z,3948.75
2018-04-15T09:51:40.339Z,4044.38
2018-04-15T09:52:40.342Z,2542.50
2018-04-15T09:53:40.282Z,1890.00
2018-04-15T09:54:40.311Z,770.63
2018-04-15T09:55:40.238Z,4185.00
2018-04-15T09:56:40.211Z,4162.50
2018-04-15T09:57:40.171Z,1029.38
2018-04-15T09:58:40.137Z,1591.88
2018-04-15T09:59:40.125Z,4044.38
2018-04-15T10:00:40.115Z,4246.88
2018-04-15T10:01:40.050Z,2981.25
2018-04-15T10:02:40.023Z,3960.00
2018-04-15T10:03:40.001Z,4033.13
2018-04-15T10:04:39.969Z,3768.75
2018-04-15T10:05:39.927Z,1192.50
2018-04-15T10:06:39.933Z,1389.38
2018-04-15T10:07:39.881Z,4173.75
2018-04-15T10:08:39.845Z,3937.50
2018-04-15T10:09:39.812Z,4044.38
2018-04-15T10:10:39.798Z,4016.25
2018-04-15T10:11:39.783Z,3954.38
2018-04-15T10:12:39.730Z,4033.13
2018-04-15T10:13:39.707Z,3892.50
2018-04-15T10:14:39.694Z,3943.13
2018-04-15T10:15:39.644Z,4072.50
2018-04-15T10:16:39.642Z,4061.25
2018-04-15T10:17:39.572Z,4027.50
2018-04-15T10:18:39.555Z,1659.38
2018-04-15T10:19:39.513Z,1231.88
2018-04-15T10:20:39.509Z,1507.50
2018-04-15T10:21:39.463Z,1642.50
2018-04-15T10:22:39.465Z,1170.00
2018-04-15T10:23:39.402Z,1288.13
2018-04-15T10:24:39.397Z,4230.00
2018-04-15T10:25:39.363Z,4280.63
2018-04-15T10:26:39.335Z,4275.00
2018-04-15T10:27:39.290Z,4190.63
2018-04-15T10:28:39.291Z,4095.00
2018-04-15T10:29:39.244Z,3037.50
2018-04-15T10:30:39.203Z,3971.25
2018-04-15T10:31:39.181Z,4230.00
2018-04-15T10:32:39.161Z,4201.88
2018-04-15T10:33:39.153Z,4106.25
2018-04-15T10:34:39.096Z,4095.00
2018-04-15T10:35:39.059Z,4044.38
2018-04-15T10:36:39.033Z,4106.25
2018-04-15T10:37:38.997Z,4275.00
2018-04-15T10:38:38.985Z,4061.25
2018-04-15T10:39:38.974Z,4010.63
2018-04-15T10:40:38.908Z,3960.00
2018-04-15T10:41:38.888Z,3898.13
2018-04-15T10:42:38.873Z,3915.00
2018-04-15T10:43:38.848Z,3853.13
2018-04-15T10:44:38.813Z,3841.88
2018-04-15T10:45:38.816Z,4038.75
2018-04-15T10:46:38.810Z,3791.25
2018-04-15T10:47:38.721Z,4083.75
2018-04-15T10:48:38.695Z,4156.88
2018-04-15T10:49:38.662Z,4117.50
2018-04-15T10:50:38.672Z,4066.88
2018-04-15T10:51:38.617Z,1012.50
2018-04-15T10:52:38.582Z,793.13
2018-04-15T10:53:38.558Z,736.88
2018-04-15T10:54:38.522Z,759.38
2018-04-15T10:55:38.495Z,776.25
2018-04-15T10:56:38.494Z,3892.50
2018-04-15T10:57:38.437Z,3898.13
2018-04-15T10:58:38.414Z,3881.25
2018-04-15T10:59:38.383Z,4038.75
2018-04-15T11:00:38.359Z,939.38
2018-04-15T11:01:38.318Z,871.88
2018-04-15T11:02:38.321Z,815.63
2018-04-15T11:03:38.266Z,821.25
2018-04-15T11:04:38.238Z,995.63
2018-04-15T11:05:38.210Z,3993.75
2018-04-15T11:06:38.168Z,4331.25
2018-04-15T11:07:38.189Z,4275.00
2018-04-15T11:08:38.154Z,3318.75
2018-04-15T11:09:38.081Z,1659.38
2018-04-15T11:10:38.062Z,1496.25
2018-04-15T11:11:38.021Z,1670.63
2018-04-15T11:12:37.996Z,4100.63
2018-04-15T11:13:37.993Z,4213.13
2018-04-15T11:14:37.935Z,4533.75
2018-04-15T11:15:37.903Z,4455.00
2018-04-15T11:16:37.878Z,4258.13
2018-04-15T11:17:37.856Z,4246.88
2018-04-15T11:18:37.827Z,4185.00
2018-04-15T11:19:37.823Z,2407.50
2018-04-15T11:20:37.756Z,4128.75
2018-04-15T11:21:37.728Z,4021.88
2018-04-15T11:22:37.697Z,4359.38
2018-04-15T11:23:37.665Z,1400.63
2018-04-15T11:24:37.674Z,1108.13
2018-04-15T11:25:37.614Z,1130.63
2018-04-15T11:26:37.586Z,2621.25
2018-04-15T11:27:37.561Z,4055.63
2018-04-15T11:28:37.528Z,4083.75
2018-04-15T11:29:37.507Z,3965.63
2018-04-15T11:30:37.508Z,3436.88
2018-04-15T11:31:37.438Z,978.75
2018-04-15T11:32:37.410Z,995.63
2018-04-15T11:33:37.385Z,3841.88
2018-04-15T11:34:37.358Z,4100.63
2018-04-15T11:35:37.332Z,2660.63
2018-04-15T11:36:37.328Z,3819.38
2018-04-15T11:37:37.271Z,2891.25
2018-04-15T11:38:37.241Z,1327.50
2018-04-15T11:39:37.216Z,1074.38
2018-04-15T11:40:37.184Z,1237.50
2018-04-15T11:41:37.185Z,4196.25
2018-04-15T11:42:37.130Z,3695.63
2018-04-15T11:43:37.096Z,3408.75
2018-04-15T11:44:37.065Z,1215.00
2018-04-15T11:45:37.074Z,2368.13
2018-04-15T11:46:37.000Z,1080.00
2018-04-15T11:47:37.010Z,1023.75
2018-04-15T11:48:36.945Z,995.63
2018-04-15T11:49:36.923Z,1035.00
2018-04-15T11:50:36.878Z,3763.13
2018-04-15T11:51:36.903Z,1299.38
2018-04-15T11:52:36.835Z,1243.13
2018-04-15T11:53:36.818Z,1569.38
2018-04-15T11:54:36.772Z,1186.88
2018-04-15T11:55:36.770Z,1085.63
2018-04-15T11:56:36.716Z,1158.75
2018-04-15T11:57:36.679Z,3633.75
2018-04-15T11:58:36.702Z,3588.75
2018-04-15T11:59:36.637Z,3796.88
2018-04-15T12:00:36.587Z,3875.63
2018-04-15T12:01:36.546Z,1040.63
2018-04-15T12:02:36.524Z,888.75
2018-04-15T12:03:36.482Z,770.63
2018-04-15T12:04:36.484Z,781.88
2018-04-15T12:05:36.473Z,736.88
2018-04-15T12:06:36.401Z,849.38
2018-04-15T12:07:36.359Z,2289.38
2018-04-15T12:08:36.339Z,3864.38
2018-04-15T12:09:36.308Z,3335.63
2018-04-15T12:10:36.299Z,1125.00
2018-04-15T12:11:36.237Z,1074.38
2018-04-15T12:12:36.214Z,1738.13
2018-04-15T12:13:36.170Z,1091.25
2018-04-15T12:14:36.140Z,1130.63
2018-04-15T12:15:36.146Z,1935.00
2018-04-15T12:16:36.081Z,1406.25
2018-04-15T12:17:36.054Z,3571.88
2018-04-15T12:18:36.012Z,4179.38
2018-04-15T12:19:35.991Z,4241.25
2018-04-15T12:20:35.954Z,1524.38
2018-04-15T12:21:35.959Z,3915.00
2018-04-15T12:22:35.891Z,4269.38
2018-04-15T12:23:35.865Z,1423.13
2018-04-15T12:24:35.829Z,1451.25
2018-04-15T12:25:35.788Z,3892.50
2018-04-15T12:26:35.773Z,4089.38
2018-04-15T12:27:35.765Z,4027.50
2018-04-15T12:28:35.701Z,4072.50
2018-04-15T12:29:35.680Z,3999.38
2018-04-15T12:30:35.645Z,3915.00
2018-04-15T12:31:35.621Z,3858.75
2018-04-15T12:32:35.623Z,3695.63
2018-04-15T12:33:35.556Z,3594.38
2018-04-15T12:34:35.525Z,2334.38
2018-04-15T12:35:35.497Z,3785.63
2018-04-15T12:36:35.477Z,1153.13
2018-04-15T12:37:35.434Z,1164.38
2018-04-15T12:38:35.459Z,3813.75
2018-04-15T12:39:35.386Z,3892.50